WetterOnline ( https://www.wetteronline.at )

Wetter aktuell Lüneburg

Aktuelles Wetter: Boizenburg (46m)

6-stündlich | Neueste Meldungen
Ortszeit Temperatur Wetter
Di, 27.09. 8:00 10.0° C bedeckt
Di, 27.09. 2:00 10.2° C leichter Regen
Mo, 26.09. 20:00 11.6° C bedeckt
Mo, 26.09. 14:00 13.5° C bedeckt
Mo, 26.09. 8:00 8.9° C bedeckt
Mo, 26.09. 2:00 9.1° C wolkig
So, 25.09. 20:00 10.7° C fast wolkenlos
So, 25.09. 14:00 14.3° C bewölkt
Ortszeit Temperatur Wetter
Di, 27.09. 12:00 11.2° C leichter Regen
Di, 27.09. 11:50 11.2° C leichter Regen
Di, 27.09. 11:40 11.3° C leichter Regen
Di, 27.09. 11:30 11.8° C leichter Regen
Di, 27.09. 11:20 11.8° C leichter Regen
Di, 27.09. 11:10 11.2° C Sprühregen
Di, 27.09. 11:00 11.5° C Regen
Di, 27.09. 10:30 11.0° C leichter Regen
Di, 27.09. 10:00 10.7° C leichter Regen
Di, 27.09. 9:30 10.5° C leichter Regen
Di, 27.09. 9:00 10.4° C leichter Regen
Ortszeit Relative Feuchte Sichtweite
Di, 27.09. 8:00 96% 15 km
Di, 27.09. 2:00 91% 20 km
Mo, 26.09. 20:00 82% 60 km
Mo, 26.09. 14:00 70% 50 km
Mo, 26.09. 8:00 90% 45 km
Mo, 26.09. 2:00 83% 55 km
So, 25.09. 20:00 93% 35 km
So, 25.09. 14:00 84% 25 km
Ortszeit Relative Feuchte Sichtweite
Di, 27.09. 12:00 89% 30 km
Di, 27.09. 11:50 89% -
Di, 27.09. 11:40 89% -
Di, 27.09. 11:30 89% 45 km
Di, 27.09. 11:20 89% -
Di, 27.09. 11:10 90% -
Di, 27.09. 11:00 88% >70 km
Di, 27.09. 10:30 92% 28 km
Di, 27.09. 10:00 94% 22 km
Di, 27.09. 9:30 95% 20 km
Di, 27.09. 9:00 95% 7 km
Ortszeit Niederschlagsmenge Niederschlagsart
Di, 27.09. 8:00 5 l/m2 in 12 Std. Regen
Di, 27.09. 2:00 0.8 l/m2 in 6 Std. Regen
Mo, 26.09. 20:00 1 l/m2 in 12 Std. Regen
Mo, 26.09. 14:00 0.1 l/m2 in 6 Std. Regen
Mo, 26.09. 8:00 0.0 l/m2 in 12 Std. -
Mo, 26.09. 2:00 0.1 l/m2 in 6 Std. -
So, 25.09. 20:00 0.1 l/m2 in 12 Std. Regen
So, 25.09. 14:00 0.1 l/m2 in 6 Std. Regen
Ortszeit Niederschlagsmenge Niederschlagsart
Di, 27.09. 12:00 0.5 l/m2 in 1 Std. Regen
Di, 27.09. 11:50 keine Meldung -
Di, 27.09. 11:40 keine Meldung -
Di, 27.09. 11:30 0.1 l/m2 in 1 Std. -
Di, 27.09. 11:20 keine Meldung -
Di, 27.09. 11:10 keine Meldung -
Di, 27.09. 11:00 <0.05 l/m2 in 1 Std. Regen
Di, 27.09. 10:30 <0.05 l/m2 in 1 Std. -
Di, 27.09. 10:00 0.3 l/m2 in 1 Std. Regen
Di, 27.09. 9:30 0.2 l/m2 in 1 Std. -
Di, 27.09. 9:00 0.2 l/m2 in 1 Std. Regen
Ortszeit Stärke Spitze Richtung
km/h Bft. km/h Grad Sektor
Di, 27.09. 8:00 7 2 22 200° S
Di, 27.09. 2:00 9 2 33 170° S
Mo, 26.09. 20:00 11 2 43 180° S
Mo, 26.09. 14:00 17 3 35 190° S
Mo, 26.09. 8:00 9 2 22 190° S
Mo, 26.09. 2:00 11 2 18 220° SW
So, 25.09. 20:00 7 2 25 230° SW
So, 25.09. 14:00 7 2 11 260° W
Ortszeit Stärke Spitze Richtung
km/h Bft. km/h Grad Sektor
Di, 27.09. 12:00 17 3 30 240° SW
Di, 27.09. 11:50 17 3 - 240° SW
Di, 27.09. 11:40 18 3 - 240° SW
Di, 27.09. 11:30 17 3 30 250° W
Di, 27.09. 11:20 17 3 - 250° W
Di, 27.09. 11:10 18 3 - 240° SW
Di, 27.09. 11:00 18 3 29 240° SW
Di, 27.09. 10:30 19 3 26 240° SW
Di, 27.09. 10:00 15 3 24 240° SW
Di, 27.09. 9:30 13 3 24 230° SW
Di, 27.09. 9:00 9 2 22 210° SW
Ortszeit Untergrenze Bedeckung Gattung
total tief tief mittel hoch
Di, 27.09. 8:00 90 m 8/8 8/8 - - -
Di, 27.09. 2:00 540 m 8/8 8/8 - - -
Mo, 26.09. 20:00 750 m 8/8 8/8 - - -
Mo, 26.09. 14:00 990 m 8/8 8/8 - - -
Mo, 26.09. 8:00 1800 m 8/8 8/8 - - -
Mo, 26.09. 2:00 8100 m 8/8 0/8 - - -
So, 25.09. 20:00 2400 m 1/8 1/8 - - -
So, 25.09. 14:00 750 m 7/8 7/8 - - -
Ortszeit Bedeckungsgrad in Achtel und Wolkenuntergrenze
Di, 27.09. 12:00 3(300m) 8(1500m) 8(3600m)
Di, 27.09. 11:50 3(300m) 8(1500m) 8(3600m)
Di, 27.09. 11:40 8
Di, 27.09. 11:30 6(420m) 7(840m) 8(1290m)
Di, 27.09. 11:20 6(420m) 7(840m) 8(1290m)
Di, 27.09. 11:10 8
Di, 27.09. 11:00 6(330m) 8(1500m) 8(4800m)
Di, 27.09. 10:30 3(240m) 7(360m) 8(1500m)
Di, 27.09. 10:00 7(210m) 8(1020m) 8(3300m)
Di, 27.09. 9:30 7(150m) 8(270m)
Di, 27.09. 9:00 6(150m) 8(240m)
Ortszeit Luftdruck NN (hPa) Tendenz (hPa in 3 Std.)
Di, 27.09. 8:00 991 - 0,6
Di, 27.09. 2:00 994 - 1,9
Mo, 26.09. 20:00 997 - 2,0
Mo, 26.09. 14:00 1000 - 1,7
Mo, 26.09. 8:00 1003 - 2,1
Mo, 26.09. 2:00 1008 - 1,6
So, 25.09. 20:00 1010 - 0,8
So, 25.09. 14:00 1012 - 0,4
Ortszeit Luftdruck NN (hPa) Tendenz (hPa in 3 Std.)
Di, 27.09. 12:00 993 + 1,1
Di, 27.09. 11:50 993 keine Meldung
Di, 27.09. 11:40 993 keine Meldung
Di, 27.09. 11:30 993 + 1,1
Di, 27.09. 11:20 993 keine Meldung
Di, 27.09. 11:10 992 keine Meldung
Di, 27.09. 11:00 992 + 0,9
Di, 27.09. 10:30 992 + 0,9
Di, 27.09. 10:00 992 + 0,6
Di, 27.09. 9:30 992 + 0,4
Di, 27.09. 9:00 992 - 0,1
Ortszeit Schneehöhe (cm)
Di, 27.09. 8:00 0
Di, 27.09. 2:00 0
Mo, 26.09. 20:00 0
Mo, 26.09. 14:00 0
Mo, 26.09. 8:00 0
Mo, 26.09. 2:00 0
So, 25.09. 20:00 0
So, 25.09. 14:00 0
Ortszeit Schneehöhe (cm)
Di, 27.09. 12:00 0
Di, 27.09. 11:50 0
Di, 27.09. 11:40 0
Di, 27.09. 11:30 0
Di, 27.09. 11:20 0
Di, 27.09. 11:10 0
Di, 27.09. 11:00 0
Di, 27.09. 10:30 0
Di, 27.09. 10:00 0
Di, 27.09. 9:30 0
Di, 27.09. 9:00 0
Link zu dieser Seite / Seite empfehlen

Das Wetter in ...